METAR Data
IDs: Format: Raw Decoded Include TAF

Data at: 2120 UTC 06 Dec 2019

KCDC 062053Z AUTO VRB04KT 10SM CLR 10/02 A3022 RMK AO2 SLP225 T01000022 58023
KCDC 061953Z AUTO 00000KT 10SM CLR 08/02 A3025 RMK AO2 SLP237 T00830017
KCDC 061853Z AUTO 00000KT 10SM CLR 06/02 A3028 RMK AO2 SLP252 T00610017
KCDC 061753Z AUTO 00000KT 10SM CLR 05/02 A3030 RMK AO2 SLP260 I6001 T00500017 10050 21039 50006
KCDC 061653Z AUTO 08003KT 10SM CLR 01/00 A3030 RMK AO2 SLP268 T00110000
KCDC 061553Z AUTO 00000KT 10SM CLR M01/M01 A3029 RMK AO2 SLP266 T10061006
KCDC 061453Z AUTO 00000KT 10SM CLR M03/M03 A3028 RMK AO2 SLP267 I1000 I3001 T10281033 51013
KCDC 061353Z AUTO 24003KT 10SM CLR M04/M04 A3027 RMK AO2 SLP264 T10391039
KCDC 061253Z AUTO 00000KT 10SM CLR M02/M03 A3025 RMK AO2 SLP252 I1001 T10221028
KCDC 061153Z AUTO 00000KT 10SM CLR M04/M04 A3023 RMK AO2 SLP242 70001 I1001 I6001 T10391039 10000 21039 58005
KCDC 061053Z AUTO 00000KT 10SM CLR M03/M03 A3024 RMK AO2 SLP240 I1000 T10281033
KCDC 060953Z AUTO 00000KT 10SM CLR M03/M03 A3025 RMK AO2 SLP244 I1000 T10281028
KCDC 060853Z AUTO 00000KT 7SM CLR M02/M03 A3025 RMK AO2 SLP243 I1000 I3000 T10221028 58000
KCDC 060753Z AUTO 00000KT 10SM CLR M01/M01 A3025 RMK AO2 SLP242 T10111011
KCDC 060653Z AUTO 07004KT 10SM CLR M01/M02 A3025 RMK AO2 SLP244 T10111017 400721017
KCDC 060553Z AUTO 00000KT 10SM CLR M01/M01 A3025 RMK AO2 SLP244 I6001 T10061011 10050 21017 51010
KCDC 060453Z AUTO 18003KT 10SM CLR M01/M01 A3024 RMK AO2 SLP243 I1001 T10061006
KCDC 060353Z AUTO 00000KT 8SM CLR 00/00 A3023 RMK AO2 SLP240 T00000000
KCDC 060253Z AUTO 18003KT 10SM CLR 01/01 A3022 RMK AO2 SLP234 T00110011 51013
KCDC 060153Z AUTO 00000KT 10SM CLR 01/00 A3021 RMK AO2 SLP231 T00110000
KCDC 060053Z AUTO 00000KT 10SM CLR 02/01 A3019 RMK AO2 SLP223 T00220011
KCDC 052353Z AUTO 05004KT 10SM CLR 06/02 A3017 RMK AO2 SLP208 T00560017 10072 20050 51007
KCDC 052301Z AUTO 05005KT 10SM SCT027 BKN036 07/02 A3016 RMK AO2 T00670022
KCDC 052253Z AUTO 06004KT 10SM BKN027 BKN037 07/02 A3017 RMK AO2 SLP205 T00670022
KCDC 052251Z AUTO 05004KT 10SM BKN027 OVC037 06/02 A3017 RMK AO2
KCDC 052153Z AUTO 26003KT 10SM OVC038 07/02 A3015 RMK AO2 SLP197 T00670022
KCDC 052053Z AUTO 24004KT 10SM OVC037 07/01 A3013 RMK AO2 SLP191 T00670011 55002
KCDC 051953Z AUTO 21006KT 10SM BKN037 07/02 A3013 RMK AO2 SLP190 T00670022
KCDC 051853Z AUTO 22003KT 10SM BKN037 06/02 A3013 RMK AO2 SLP190 T00560017
KCDC 051753Z AUTO 21005KT 10SM OVC037 05/02 A3013 RMK AO2 SLP195 60001 T00500022 10050 20017 51023
KCDC 051653Z AUTO 22006KT 10SM OVC034 04/03 A3011 RMK AO2 SLP190 T00390033
KCDC 051553Z AUTO 22004KT 10SM SCT029 OVC034 03/03 A3008 RMK AO2 RAE1459 SLP179 P0000 T00330033
KCDC 051532Z AUTO 25004KT 10SM BKN029 BKN036 OVC048 02/02 A3007 RMK AO2 RAE1459 P0000 T00220022
KCDC 051516Z AUTO 23007KT 10SM SCT027 BKN035 OVC048 02/02 A3007 RMK AO2 RAE1459 P0000 T00220022
KCDC 051453Z AUTO 23007KT 10SM -RA OVC029 02/02 A3005 RMK AO2 RAB48 SLP172 P0000 60001 T00170017 53023
KCDC 051416Z AUTO 25005KT 10SM BKN026 OVC047 02/02 A3003 RMK AO2 T00170017
KCDC 051353Z AUTO 16003KT 10SM FEW021 OVC047 02/02 A3001 RMK AO2 SLP157 T00220022
KCDC 051316Z AUTO 18008KT 10SM FEW007 BKN047 OVC070 02/02 A3000 RMK AO2 T00220022
KCDC 051253Z AUTO 23006KT 10SM FEW007 OVC027 02/02 A3000 RMK AO2 RAE33 SLP149 P0001 T00220017
KCDC 051241Z AUTO 22005KT 10SM FEW007 BKN029 OVC034 02/02 A2999 RMK AO2 RAE33 P0001 T00220022
KCDC 051153Z AUTO 24006KT 8SM -RA BKN030 OVC038 02/02 A2997 RMK AO2 RAB37 SLP143 P0000 60004 70020 T00170017 10028 20011 51014
KCDC 051053Z AUTO 24010KT 10SM SCT032 BKN055 OVC085 02/01 A2996 RMK AO2 RAE16UPB00E05 SLP135 P0001 T00170011
KCDC 051006Z AUTO 21011G18KT 10SM -RA FEW025 BKN037 OVC046 02/02 A2996 RMK AO2 UPB00E05 P0001 T00170017
KCDC 050953Z AUTO 22011G20KT 9SM -RA FEW017 OVC026 02/02 A2996 RMK AO2 SLP135 P0002 T00220022
KCDC 050934Z AUTO 22011G19KT 9SM -RA FEW011 FEW018 OVC026 02/02 A2995 RMK AO2 P0002 T00220017